DLH37W LEMD-EDDF
Flight info
| Callsign | DLH37W |
|---|---|
| Flight time | 2h 5m |
| Altitude | 36000 |
| Route | PINAR N870 SEGRE N871 TOPTU DCT TOU DCT GAI DCT MEN DCT NINUN DCT LATAM DCT ETREK DCT LTP DCT SOPLO DCT OMASI DCT KINNI DCT SOSAL DCT KORED DCT BERSU DCT DITON/N0446F370 DCT LADOL/N0442F360 T163 EMPAX EMPAX5B |
| Aircraft | A321/M-SDE2E3FGIJ1LORWXYZ/HB1 |
Departure
| Time | 2026-05-06 20:10 |
|---|---|
| Airport | Adolfo Suárez Madrid–Barajas Airport (LEMD) |
Arrival
| Time | 2026-05-06 22:15 |
|---|---|
| Airport | Frankfurt Main Airport (EDDF) |
| Time | Latitude | Longitude | Altitude | Speed | Heading |
|---|---|---|---|---|---|
| 2026-05-06 19:25 | 40.49468 | -3.56851 | 1973 ft | 0 kts | 90° |
| 2026-05-06 19:58 | 40.49468 | -3.56865 | 1972 ft | 4 kts | 90° |
| 2026-05-06 19:58 | 40.49469 | -3.56900 | 1976 ft | 4 kts | 93° |
| 2026-05-06 19:58 | 40.49471 | -3.56935 | 1977 ft | 4 kts | 98° |
| 2026-05-06 19:58 | 40.49476 | -3.56970 | 1977 ft | 4 kts | 109° |
| 2026-05-06 19:59 | 40.49488 | -3.56998 | 1980 ft | 4 kts | 150° |
| 2026-05-06 19:59 | 40.49497 | -3.57003 | 1979 ft | 1 kts | 180° |
| 2026-05-06 20:03 | 40.49488 | -3.57003 | 1975 ft | 4 kts | 180° |
| 2026-05-06 20:03 | 40.49441 | -3.57003 | 1977 ft | 10 kts | 179° |
| 2026-05-06 20:03 | 40.49357 | -3.57002 | 1975 ft | 14 kts | 180° |
| 2026-05-06 20:03 | 40.49294 | -3.57051 | 1978 ft | 10 kts | 253° |
| 2026-05-06 20:04 | 40.49289 | -3.57092 | 1979 ft | 0 kts | 266° |
| 2026-05-06 20:04 | 40.49289 | -3.57103 | 1979 ft | 3 kts | 262° |
| 2026-05-06 20:04 | 40.49273 | -3.57111 | 1981 ft | 4 kts | 197° |
| 2026-05-06 20:04 | 40.49231 | -3.57115 | 1980 ft | 9 kts | 178° |
| 2026-05-06 20:05 | 40.49182 | -3.57177 | 1984 ft | 13 kts | 265° |
| 2026-05-06 20:05 | 40.49182 | -3.57318 | 1983 ft | 17 kts | 270° |
| 2026-05-06 20:05 | 40.49182 | -3.57348 | 1984 ft | 0 kts | 269° |
| 2026-05-06 20:08 | 40.49182 | -3.57356 | 1984 ft | 2 kts | 269° |
| 2026-05-06 20:08 | 40.49183 | -3.57395 | 1987 ft | 8 kts | 281° |
| 2026-05-06 20:08 | 40.49240 | -3.57450 | 1985 ft | 16 kts | 1° |
| 2026-05-06 20:08 | 40.49322 | -3.57452 | 1983 ft | 0 kts | 0° |
| 2026-05-06 20:09 | 40.49326 | -3.57452 | 1983 ft | 3 kts | 0° |
| 2026-05-06 20:09 | 40.49492 | -3.57451 | 1985 ft | 56 kts | 0° |
| 2026-05-06 20:09 | 40.50116 | -3.57457 | 1988 ft | 121 kts | 0° |
| 2026-05-06 20:10 | 40.51142 | -3.57467 | 1998 ft | 171 kts | 359° |
| 2026-05-06 20:10 | 40.52408 | -3.57487 | 2454 ft | 179 kts | 359° |
| 2026-05-06 20:10 | 40.53616 | -3.57462 | 3256 ft | 172 kts | 3° |
| 2026-05-06 20:10 | 40.54760 | -3.57405 | 3778 ft | 177 kts | 2° |
| 2026-05-06 20:11 | 40.56003 | -3.57343 | 4266 ft | 183 kts | 5° |
| 2026-05-06 20:11 | 40.57296 | -3.57133 | 4694 ft | 193 kts | 11° |
| 2026-05-06 20:11 | 40.58645 | -3.56728 | 5047 ft | 206 kts | 16° |
| 2026-05-06 20:11 | 40.60049 | -3.56159 | 5474 ft | 215 kts | 18° |
| 2026-05-06 20:12 | 40.61484 | -3.55524 | 5935 ft | 222 kts | 20° |
| 2026-05-06 20:12 | 40.62984 | -3.54827 | 6243 ft | 238 kts | 20° |
| 2026-05-06 20:12 | 40.64592 | -3.54332 | 6715 ft | 247 kts | 7° |
| 2026-05-06 20:12 | 40.66307 | -3.54079 | 7387 ft | 250 kts | 6° |
| 2026-05-06 20:13 | 40.68046 | -3.53874 | 8072 ft | 253 kts | 7° |
| 2026-05-06 20:13 | 40.69739 | -3.53235 | 8731 ft | 255 kts | 27° |
| 2026-05-06 20:13 | 40.71209 | -3.51878 | 9171 ft | 268 kts | 47° |
| 2026-05-06 20:13 | 40.72342 | -3.49864 | 9636 ft | 277 kts | 57° |
| 2026-05-06 20:14 | 40.73422 | -3.47738 | 10249 ft | 282 kts | 57° |
| 2026-05-06 20:14 | 40.74533 | -3.45586 | 10870 ft | 285 kts | 57° |
| 2026-05-06 20:14 | 40.75663 | -3.43414 | 11498 ft | 289 kts | 56° |
| 2026-05-06 20:14 | 40.76806 | -3.41225 | 12133 ft | 292 kts | 56° |
| 2026-05-06 20:15 | 40.77963 | -3.39007 | 12777 ft | 295 kts | 56° |
| 2026-05-06 20:15 | 40.79133 | -3.36764 | 13405 ft | 299 kts | 56° |
| 2026-05-06 20:15 | 40.80318 | -3.34487 | 13988 ft | 302 kts | 56° |
| 2026-05-06 20:15 | 40.81507 | -3.32188 | 14518 ft | 306 kts | 56° |
| 2026-05-06 20:16 | 40.82305 | -3.30641 | 14869 ft | 309 kts | 56° |
| 2026-05-06 20:16 | 40.83919 | -3.27513 | 15570 ft | 314 kts | 56° |
| 2026-05-06 20:16 | 40.84716 | -3.25938 | 15910 ft | 316 kts | 59° |
| 2026-05-06 20:16 | 40.85863 | -3.22375 | 16417 ft | 327 kts | 77° |
| 2026-05-06 20:17 | 40.86393 | -3.19369 | 16558 ft | 344 kts | 77° |
| 2026-05-06 20:17 | 40.86789 | -3.17264 | 16657 ft | 355 kts | 76° |
| 2026-05-06 20:17 | 40.87428 | -3.14038 | 16797 ft | 371 kts | 76° |
| 2026-05-06 20:17 | 40.88107 | -3.10693 | 17014 ft | 382 kts | 76° |
| 2026-05-06 20:18 | 40.88804 | -3.07280 | 17446 ft | 388 kts | 75° |
| 2026-05-06 20:18 | 40.89505 | -3.03813 | 17908 ft | 392 kts | 75° |
| 2026-05-06 20:18 | 40.90195 | -3.00361 | 18348 ft | 396 kts | 76° |
| 2026-05-06 20:18 | 40.90901 | -2.96776 | 18779 ft | 399 kts | 76° |
| 2026-05-06 20:19 | 40.91597 | -2.93215 | 19210 ft | 402 kts | 76° |
| 2026-05-06 20:19 | 40.92287 | -2.89668 | 19645 ft | 405 kts | 76° |
| 2026-05-06 20:19 | 40.92999 | -2.85996 | 20076 ft | 408 kts | 76° |
| 2026-05-06 20:19 | 40.93694 | -2.82401 | 20490 ft | 411 kts | 76° |
| 2026-05-06 20:20 | 40.94414 | -2.78687 | 20905 ft | 414 kts | 76° |
| 2026-05-06 20:20 | 40.95122 | -2.75030 | 21304 ft | 416 kts | 76° |
| 2026-05-06 20:20 | 40.95844 | -2.71306 | 21722 ft | 419 kts | 76° |
| 2026-05-06 20:20 | 40.96567 | -2.67568 | 22133 ft | 422 kts | 76° |
| 2026-05-06 20:21 | 40.97298 | -2.63785 | 22505 ft | 425 kts | 76° |
| 2026-05-06 20:21 | 40.98027 | -2.60002 | 22886 ft | 428 kts | 76° |
| 2026-05-06 20:21 | 40.98762 | -2.56163 | 23280 ft | 431 kts | 76° |
| 2026-05-06 20:21 | 40.99499 | -2.52299 | 23641 ft | 434 kts | 76° |
| 2026-05-06 20:22 | 41.00233 | -2.48434 | 23968 ft | 436 kts | 76° |
| 2026-05-06 20:22 | 41.00989 | -2.44524 | 24307 ft | 438 kts | 73° |
| 2026-05-06 20:22 | 41.02092 | -2.40766 | 24635 ft | 440 kts | 63° |
| 2026-05-06 20:22 | 41.03675 | -2.37292 | 24964 ft | 440 kts | 52° |
| 2026-05-06 20:23 | 41.05669 | -2.34226 | 25293 ft | 441 kts | 42° |
| 2026-05-06 20:23 | 41.08003 | -2.31597 | 25625 ft | 441 kts | 36° |
| 2026-05-06 20:23 | 41.10417 | -2.29053 | 25964 ft | 443 kts | 37° |
| 2026-05-06 20:23 | 41.12823 | -2.26498 | 26310 ft | 445 kts | 37° |
| 2026-05-06 20:24 | 41.15239 | -2.23923 | 26652 ft | 446 kts | 37° |
| 2026-05-06 20:24 | 41.17656 | -2.21346 | 26967 ft | 448 kts | 37° |
| 2026-05-06 20:24 | 41.20103 | -2.18737 | 27278 ft | 450 kts | 37° |
| 2026-05-06 20:24 | 41.22547 | -2.16131 | 27590 ft | 453 kts | 37° |
| 2026-05-06 20:25 | 41.25013 | -2.13500 | 27908 ft | 455 kts | 37° |
| 2026-05-06 20:25 | 41.27486 | -2.10859 | 28216 ft | 457 kts | 37° |
| 2026-05-06 20:25 | 41.29959 | -2.08217 | 28504 ft | 459 kts | 37° |
| 2026-05-06 20:25 | 41.32460 | -2.05538 | 28805 ft | 461 kts | 37° |
| 2026-05-06 20:26 | 41.34962 | -2.02853 | 29120 ft | 464 kts | 37° |
| 2026-05-06 20:26 | 41.37480 | -2.00149 | 29407 ft | 466 kts | 37° |
| 2026-05-06 20:26 | 41.40005 | -1.97437 | 29690 ft | 468 kts | 37° |
| 2026-05-06 20:26 | 41.42549 | -1.94701 | 29967 ft | 470 kts | 37° |
| 2026-05-06 20:27 | 41.45095 | -1.91960 | 30210 ft | 472 kts | 37° |
| 2026-05-06 20:27 | 41.47658 | -1.89200 | 30414 ft | 474 kts | 37° |
| 2026-05-06 20:27 | 41.50228 | -1.86427 | 30626 ft | 476 kts | 37° |
| 2026-05-06 20:27 | 41.52805 | -1.83641 | 30832 ft | 478 kts | 37° |
| 2026-05-06 20:28 | 41.55395 | -1.80841 | 31036 ft | 479 kts | 37° |
| 2026-05-06 20:28 | 41.57982 | -1.78042 | 31310 ft | 479 kts | 37° |
| 2026-05-06 20:28 | 41.60562 | -1.75248 | 31597 ft | 478 kts | 37° |
| 2026-05-06 20:28 | 41.63142 | -1.72452 | 31870 ft | 477 kts | 37° |
| 2026-05-06 20:29 | 41.65724 | -1.69650 | 32145 ft | 477 kts | 37° |
| 2026-05-06 20:29 | 41.68296 | -1.66857 | 32421 ft | 477 kts | 37° |
| 2026-05-06 20:29 | 41.70875 | -1.64053 | 32684 ft | 477 kts | 37° |
| 2026-05-06 20:29 | 41.73441 | -1.61260 | 32938 ft | 476 kts | 37° |
| 2026-05-06 20:30 | 41.76016 | -1.58454 | 33194 ft | 476 kts | 37° |
| 2026-05-06 20:30 | 41.81137 | -1.52865 | 33773 ft | 474 kts | 37° |
| 2026-05-06 20:30 | 41.83703 | -1.50059 | 33976 ft | 475 kts | 37° |
| 2026-05-06 20:31 | 41.86262 | -1.47261 | 34165 ft | 476 kts | 37° |
| 2026-05-06 20:31 | 41.88832 | -1.44449 | 34358 ft | 476 kts | 37° |
| 2026-05-06 20:31 | 41.91398 | -1.41641 | 34549 ft | 476 kts | 37° |
| 2026-05-06 20:31 | 41.93965 | -1.38824 | 34738 ft | 477 kts | 37° |
| 2026-05-06 20:32 | 41.96527 | -1.36007 | 34932 ft | 477 kts | 37° |
| 2026-05-06 20:32 | 41.99097 | -1.33176 | 35137 ft | 476 kts | 37° |
| 2026-05-06 20:32 | 42.01659 | -1.30350 | 35363 ft | 476 kts | 37° |
| 2026-05-06 20:32 | 42.04215 | -1.27529 | 35561 ft | 475 kts | 37° |
| 2026-05-06 20:33 | 42.06767 | -1.24710 | 35744 ft | 475 kts | 37° |
| 2026-05-06 20:33 | 42.09305 | -1.21906 | 35925 ft | 476 kts | 37° |
| 2026-05-06 20:33 | 42.11858 | -1.19080 | 35984 ft | 475 kts | 37° |
| 2026-05-06 20:34 | 42.16957 | -1.13434 | 35985 ft | 474 kts | 37° |
| 2026-05-06 20:34 | 42.22033 | -1.07799 | 35993 ft | 475 kts | 37° |
| 2026-05-06 20:35 | 42.27128 | -1.02125 | 35989 ft | 474 kts | 37° |
| 2026-05-06 20:35 | 42.32206 | -0.96454 | 35994 ft | 474 kts | 37° |
| 2026-05-06 20:36 | 42.37258 | -0.90813 | 35991 ft | 474 kts | 37° |
| 2026-05-06 20:36 | 42.42338 | -0.85000 | 36019 ft | 476 kts | 43° |
| 2026-05-06 20:37 | 42.46539 | -0.78113 | 36027 ft | 478 kts | 51° |
| 2026-05-06 20:37 | 42.50595 | -0.70979 | 36019 ft | 479 kts | 50° |
| 2026-05-06 20:38 | 42.54631 | -0.63886 | 36026 ft | 479 kts | 51° |
| 2026-05-06 20:38 | 42.58697 | -0.56708 | 36018 ft | 479 kts | 50° |
| 2026-05-06 20:39 | 42.62754 | -0.49524 | 36048 ft | 479 kts | 50° |
| 2026-05-06 20:39 | 42.66799 | -0.42327 | 36041 ft | 479 kts | 51° |
| 2026-05-06 20:40 | 42.70843 | -0.35131 | 36045 ft | 478 kts | 50° |
| 2026-05-06 20:40 | 42.74853 | -0.27983 | 36045 ft | 479 kts | 51° |
| 2026-05-06 20:41 | 42.78893 | -0.20774 | 36052 ft | 478 kts | 51° |
| 2026-05-06 20:41 | 42.82919 | -0.13770 | 36037 ft | 477 kts | 49° |
| 2026-05-06 20:42 | 42.87157 | -0.06804 | 36054 ft | 477 kts | 48° |
| 2026-05-06 20:42 | 42.91411 | 0.00149 | 36061 ft | 478 kts | 48° |
| 2026-05-06 20:43 | 42.95624 | 0.07162 | 36050 ft | 478 kts | 49° |
| 2026-05-06 20:43 | 42.99814 | 0.14204 | 36064 ft | 478 kts | 49° |
| 2026-05-06 20:44 | 43.04010 | 0.21270 | 36065 ft | 479 kts | 49° |
| 2026-05-06 20:44 | 43.08217 | 0.28338 | 36060 ft | 479 kts | 49° |
| 2026-05-06 20:45 | 43.12419 | 0.35416 | 36063 ft | 479 kts | 49° |
| 2026-05-06 20:45 | 43.16616 | 0.42507 | 36057 ft | 479 kts | 49° |
| 2026-05-06 20:46 | 43.20789 | 0.49586 | 36049 ft | 480 kts | 49° |
| 2026-05-06 20:46 | 43.24973 | 0.56707 | 36063 ft | 480 kts | 49° |
| 2026-05-06 20:47 | 43.29158 | 0.63836 | 36054 ft | 480 kts | 49° |
| 2026-05-06 20:47 | 43.33317 | 0.70930 | 36053 ft | 480 kts | 49° |
| 2026-05-06 20:48 | 43.37515 | 0.78116 | 36047 ft | 480 kts | 49° |
| 2026-05-06 20:48 | 43.41701 | 0.85288 | 36044 ft | 480 kts | 49° |
| 2026-05-06 20:49 | 43.45854 | 0.92416 | 36051 ft | 480 kts | 49° |
| 2026-05-06 20:49 | 43.49994 | 0.99554 | 36048 ft | 479 kts | 49° |
| 2026-05-06 20:50 | 43.54149 | 1.06740 | 36044 ft | 478 kts | 49° |
| 2026-05-06 20:50 | 43.58295 | 1.13937 | 36039 ft | 478 kts | 49° |
| 2026-05-06 20:51 | 43.62345 | 1.20967 | 36051 ft | 478 kts | 49° |
| 2026-05-06 20:51 | 43.66472 | 1.28149 | 36062 ft | 478 kts | 49° |
| 2026-05-06 20:52 | 43.70558 | 1.35387 | 36060 ft | 478 kts | 51° |
| 2026-05-06 20:52 | 43.74499 | 1.42797 | 36055 ft | 478 kts | 52° |
| 2026-05-06 20:53 | 43.78392 | 1.50243 | 36044 ft | 478 kts | 52° |
| 2026-05-06 20:53 | 43.82312 | 1.57675 | 36050 ft | 478 kts | 52° |
| 2026-05-06 20:54 | 43.86256 | 1.65085 | 36036 ft | 478 kts | 52° |
| 2026-05-06 20:54 | 43.90196 | 1.72507 | 36028 ft | 478 kts | 52° |
| 2026-05-06 20:55 | 43.94125 | 1.79947 | 36027 ft | 478 kts | 52° |
| 2026-05-06 20:55 | 43.97998 | 1.87425 | 36029 ft | 478 kts | 53° |
| 2026-05-06 20:56 | 44.01752 | 1.94995 | 36043 ft | 479 kts | 54° |
| 2026-05-06 20:56 | 44.05502 | 2.02640 | 36037 ft | 479 kts | 54° |
| 2026-05-06 20:57 | 44.09268 | 2.10264 | 36034 ft | 478 kts | 54° |
| 2026-05-06 20:57 | 44.13046 | 2.17888 | 36035 ft | 478 kts | 54° |
| 2026-05-06 20:58 | 44.16814 | 2.25515 | 36034 ft | 478 kts | 54° |
| 2026-05-06 20:58 | 44.20581 | 2.33153 | 36046 ft | 478 kts | 54° |
| 2026-05-06 20:59 | 44.24345 | 2.40810 | 36042 ft | 479 kts | 54° |
| 2026-05-06 20:59 | 44.27462 | 2.47178 | 36037 ft | 478 kts | 54° |
| 2026-05-06 21:00 | 44.31205 | 2.54842 | 36023 ft | 478 kts | 54° |
| 2026-05-06 21:00 | 44.35554 | 2.63776 | 36025 ft | 478 kts | 54° |
| 2026-05-06 21:01 | 44.39298 | 2.71485 | 36038 ft | 479 kts | 54° |
| 2026-05-06 21:01 | 44.42419 | 2.77925 | 36035 ft | 479 kts | 54° |
| 2026-05-06 21:02 | 44.46151 | 2.85649 | 36034 ft | 478 kts | 54° |
| 2026-05-06 21:02 | 44.49872 | 2.93365 | 36034 ft | 478 kts | 54° |
| 2026-05-06 21:03 | 44.53587 | 3.01088 | 36031 ft | 478 kts | 55° |
| 2026-05-06 21:03 | 44.57261 | 3.08739 | 36021 ft | 478 kts | 55° |
| 2026-05-06 21:04 | 44.60911 | 3.16375 | 36031 ft | 478 kts | 56° |
| 2026-05-06 21:04 | 44.64339 | 3.24388 | 36028 ft | 478 kts | 60° |
| 2026-05-06 21:05 | 44.67510 | 3.32606 | 36029 ft | 478 kts | 61° |
| 2026-05-06 21:05 | 44.70680 | 3.40821 | 36026 ft | 478 kts | 60° |
| 2026-05-06 21:06 | 44.73928 | 3.48999 | 36022 ft | 478 kts | 60° |
| 2026-05-06 21:06 | 44.77184 | 3.57143 | 36025 ft | 478 kts | 60° |
| 2026-05-06 21:07 | 44.80372 | 3.65154 | 36017 ft | 478 kts | 60° |
| 2026-05-06 21:07 | 44.83586 | 3.73273 | 36019 ft | 478 kts | 60° |
| 2026-05-06 21:08 | 44.86791 | 3.81397 | 36012 ft | 478 kts | 60° |
| 2026-05-06 21:08 | 44.90019 | 3.89598 | 36001 ft | 479 kts | 60° |
| 2026-05-06 21:09 | 44.93248 | 3.97836 | 36013 ft | 479 kts | 60° |
| 2026-05-06 21:09 | 44.96448 | 4.06045 | 36014 ft | 479 kts | 60° |
| 2026-05-06 21:10 | 44.99654 | 4.14284 | 36012 ft | 479 kts | 60° |
| 2026-05-06 21:10 | 45.02861 | 4.22526 | 36005 ft | 479 kts | 60° |
| 2026-05-06 21:11 | 45.06060 | 4.30768 | 36005 ft | 479 kts | 60° |
| 2026-05-06 21:11 | 45.09263 | 4.39065 | 36007 ft | 480 kts | 61° |
| 2026-05-06 21:12 | 45.12454 | 4.47356 | 36011 ft | 480 kts | 61° |
| 2026-05-06 21:12 | 45.15636 | 4.55661 | 36011 ft | 479 kts | 61° |
| 2026-05-06 21:13 | 45.18811 | 4.63975 | 35995 ft | 479 kts | 61° |
| 2026-05-06 21:13 | 45.21991 | 4.72299 | 35998 ft | 480 kts | 61° |
| 2026-05-06 21:14 | 45.25163 | 4.80625 | 35997 ft | 481 kts | 61° |
| 2026-05-06 21:14 | 45.28330 | 4.88974 | 36019 ft | 481 kts | 61° |
| 2026-05-06 21:15 | 45.31494 | 4.97364 | 36024 ft | 480 kts | 62° |
| 2026-05-06 21:15 | 45.34640 | 5.05729 | 36016 ft | 480 kts | 62° |
| 2026-05-06 21:16 | 45.37794 | 5.14109 | 36022 ft | 480 kts | 62° |
| 2026-05-06 21:16 | 45.40925 | 5.22468 | 36024 ft | 481 kts | 62° |
| 2026-05-06 21:17 | 45.44064 | 5.30884 | 36023 ft | 481 kts | 62° |
| 2026-05-06 21:17 | 45.47193 | 5.39299 | 36034 ft | 480 kts | 60° |
| 2026-05-06 21:18 | 45.51185 | 5.46778 | 36014 ft | 478 kts | 42° |
| 2026-05-06 21:18 | 45.56114 | 5.53057 | 36004 ft | 478 kts | 40° |
| 2026-05-06 21:19 | 45.61020 | 5.59327 | 35997 ft | 479 kts | 41° |
| 2026-05-06 21:19 | 45.65997 | 5.65721 | 35993 ft | 479 kts | 41° |
| 2026-05-06 21:20 | 45.70864 | 5.71981 | 35999 ft | 479 kts | 41° |
| 2026-05-06 21:20 | 45.75800 | 5.78324 | 36005 ft | 479 kts | 40° |
| 2026-05-06 21:21 | 45.80766 | 5.84702 | 36011 ft | 479 kts | 40° |
| 2026-05-06 21:21 | 45.85668 | 5.91009 | 36028 ft | 479 kts | 41° |
| 2026-05-06 21:22 | 45.90601 | 5.97384 | 36018 ft | 479 kts | 41° |
| 2026-05-06 21:22 | 45.95561 | 6.03811 | 36018 ft | 480 kts | 41° |
| 2026-05-06 21:23 | 46.00510 | 6.10234 | 36020 ft | 480 kts | 41° |
| 2026-05-06 21:23 | 46.05461 | 6.16680 | 36026 ft | 479 kts | 41° |
| 2026-05-06 21:24 | 46.10353 | 6.23104 | 35998 ft | 478 kts | 42° |
| 2026-05-06 21:24 | 46.15130 | 6.29799 | 35997 ft | 479 kts | 44° |
| 2026-05-06 21:25 | 46.19822 | 6.36619 | 35998 ft | 478 kts | 44° |
| 2026-05-06 21:25 | 46.24525 | 6.43408 | 35982 ft | 478 kts | 44° |
| 2026-05-06 21:26 | 46.29263 | 6.50175 | 35976 ft | 479 kts | 44° |
| 2026-05-06 21:26 | 46.34007 | 6.56959 | 35976 ft | 479 kts | 44° |
| 2026-05-06 21:27 | 46.38748 | 6.63758 | 35986 ft | 479 kts | 44° |
| 2026-05-06 21:27 | 46.43465 | 6.70546 | 35984 ft | 479 kts | 44° |
| 2026-05-06 21:28 | 46.48190 | 6.77377 | 35980 ft | 479 kts | 44° |
| 2026-05-06 21:28 | 46.52899 | 6.84210 | 35981 ft | 478 kts | 45° |
| 2026-05-06 21:29 | 46.57413 | 6.91291 | 35961 ft | 478 kts | 51° |
| 2026-05-06 21:29 | 46.61606 | 6.98826 | 35965 ft | 480 kts | 51° |
| 2026-05-06 21:30 | 46.65775 | 7.06352 | 35969 ft | 481 kts | 51° |
| 2026-05-06 21:30 | 46.69948 | 7.13913 | 35975 ft | 481 kts | 51° |
| 2026-05-06 21:31 | 46.74139 | 7.21513 | 35989 ft | 481 kts | 51° |
| 2026-05-06 21:31 | 46.78358 | 7.29172 | 35997 ft | 481 kts | 51° |
| 2026-05-06 21:32 | 46.82541 | 7.36792 | 35981 ft | 481 kts | 52° |
| 2026-05-06 21:32 | 46.88784 | 7.48223 | 35986 ft | 482 kts | 52° |
| 2026-05-06 21:33 | 46.92958 | 7.55905 | 35970 ft | 482 kts | 52° |
| 2026-05-06 21:33 | 46.97129 | 7.63598 | 35981 ft | 482 kts | 52° |
| 2026-05-06 21:34 | 47.01287 | 7.71286 | 35983 ft | 482 kts | 52° |
| 2026-05-06 21:34 | 47.05442 | 7.78997 | 35988 ft | 482 kts | 52° |
| 2026-05-06 21:35 | 47.09582 | 7.86708 | 35987 ft | 481 kts | 52° |
| 2026-05-06 21:35 | 47.13671 | 7.94421 | 35987 ft | 480 kts | 56° |
| 2026-05-06 21:36 | 47.17238 | 8.02708 | 35982 ft | 479 kts | 59° |
| 2026-05-06 21:36 | 47.20758 | 8.10976 | 35985 ft | 479 kts | 59° |
| 2026-05-06 21:37 | 47.24291 | 8.19274 | 35984 ft | 479 kts | 59° |
| 2026-05-06 21:37 | 47.27837 | 8.27493 | 35980 ft | 479 kts | 54° |
| 2026-05-06 21:38 | 47.32509 | 8.34371 | 35960 ft | 479 kts | 34° |
| 2026-05-06 21:38 | 47.38349 | 8.39044 | 35958 ft | 478 kts | 24° |
| 2026-05-06 21:39 | 47.44349 | 8.43271 | 35962 ft | 478 kts | 24° |
| 2026-05-06 21:39 | 47.50355 | 8.47541 | 35991 ft | 479 kts | 25° |
| 2026-05-06 21:40 | 47.56350 | 8.51820 | 35995 ft | 478 kts | 25° |
| 2026-05-06 21:40 | 47.62285 | 8.56056 | 35991 ft | 478 kts | 25° |
| 2026-05-06 21:41 | 47.68315 | 8.60360 | 35984 ft | 478 kts | 25° |
| 2026-05-06 21:41 | 47.74112 | 8.64504 | 35984 ft | 477 kts | 25° |
| 2026-05-06 21:42 | 47.80105 | 8.68813 | 35971 ft | 477 kts | 25° |
| 2026-05-06 21:42 | 47.86068 | 8.73117 | 35969 ft | 476 kts | 25° |
| 2026-05-06 21:43 | 47.92015 | 8.77405 | 35965 ft | 476 kts | 25° |
| 2026-05-06 21:43 | 47.97967 | 8.81704 | 35960 ft | 476 kts | 25° |
| 2026-05-06 21:44 | 48.03938 | 8.86036 | 35902 ft | 476 kts | 25° |
| 2026-05-06 21:44 | 48.06903 | 8.88193 | 35476 ft | 475 kts | 25° |
| 2026-05-06 21:44 | 48.09847 | 8.90335 | 34956 ft | 473 kts | 25° |
| 2026-05-06 21:45 | 48.12789 | 8.92480 | 34435 ft | 471 kts | 25° |
| 2026-05-06 21:45 | 48.15789 | 8.94408 | 33910 ft | 468 kts | 17° |
| 2026-05-06 21:45 | 48.18919 | 8.95602 | 33381 ft | 462 kts | 7° |
| 2026-05-06 21:45 | 48.22100 | 8.96146 | 32915 ft | 456 kts | 4° |
| 2026-05-06 21:46 | 48.25242 | 8.96612 | 32435 ft | 452 kts | 4° |
| 2026-05-06 21:46 | 48.28350 | 8.97082 | 31955 ft | 447 kts | 4° |
| 2026-05-06 21:46 | 48.31432 | 8.97554 | 31490 ft | 442 kts | 5° |
| 2026-05-06 21:46 | 48.34466 | 8.98018 | 31025 ft | 437 kts | 5° |
| 2026-05-06 21:47 | 48.37489 | 8.98479 | 30577 ft | 433 kts | 5° |
| 2026-05-06 21:47 | 48.40462 | 8.98933 | 30118 ft | 428 kts | 5° |
| 2026-05-06 21:47 | 48.43411 | 8.99383 | 29632 ft | 424 kts | 5° |
| 2026-05-06 21:47 | 48.45353 | 8.99679 | 29343 ft | 419 kts | 5° |
| 2026-05-06 21:48 | 48.48229 | 9.00119 | 28912 ft | 413 kts | 5° |
| 2026-05-06 21:48 | 48.51069 | 9.00553 | 28501 ft | 407 kts | 5° |
| 2026-05-06 21:48 | 48.53859 | 9.00980 | 28095 ft | 401 kts | 5° |
| 2026-05-06 21:48 | 48.56602 | 9.01402 | 27701 ft | 395 kts | 5° |
| 2026-05-06 21:49 | 48.59305 | 9.01821 | 27318 ft | 390 kts | 5° |
| 2026-05-06 21:49 | 48.61991 | 9.02233 | 26936 ft | 384 kts | 5° |
| 2026-05-06 21:49 | 48.64624 | 9.02687 | 26562 ft | 379 kts | 7° |
| 2026-05-06 21:49 | 48.67215 | 9.03253 | 26191 ft | 374 kts | 8° |
| 2026-05-06 21:50 | 48.69767 | 9.03881 | 25821 ft | 369 kts | 9° |
| 2026-05-06 21:50 | 48.72268 | 9.04526 | 25449 ft | 364 kts | 9° |
| 2026-05-06 21:50 | 48.74760 | 9.05167 | 25081 ft | 359 kts | 9° |
| 2026-05-06 21:50 | 48.77184 | 9.05778 | 24717 ft | 355 kts | 9° |
| 2026-05-06 21:51 | 48.79575 | 9.06363 | 24340 ft | 351 kts | 9° |
| 2026-05-06 21:51 | 48.81966 | 9.06938 | 23972 ft | 348 kts | 9° |
| 2026-05-06 21:51 | 48.84353 | 9.07506 | 23597 ft | 344 kts | 9° |
| 2026-05-06 21:51 | 48.86653 | 9.08050 | 23199 ft | 341 kts | 8° |
| 2026-05-06 21:52 | 48.89039 | 9.08592 | 22805 ft | 336 kts | 7° |
| 2026-05-06 21:52 | 48.91355 | 9.08996 | 22421 ft | 334 kts | 5° |
| 2026-05-06 21:52 | 48.93662 | 9.09316 | 22046 ft | 332 kts | 4° |
| 2026-05-06 21:52 | 48.95956 | 9.09602 | 21670 ft | 330 kts | 4° |
| 2026-05-06 21:53 | 48.98232 | 9.09884 | 21292 ft | 327 kts | 3° |
| 2026-05-06 21:53 | 49.00483 | 9.10175 | 20926 ft | 325 kts | 3° |
| 2026-05-06 21:53 | 49.02767 | 9.10481 | 20526 ft | 337 kts | 3° |
| 2026-05-06 21:53 | 49.05107 | 9.10807 | 20095 ft | 345 kts | 4° |
| 2026-05-06 21:54 | 49.07506 | 9.11152 | 19664 ft | 346 kts | 4° |
| 2026-05-06 21:54 | 49.09890 | 9.11502 | 19232 ft | 344 kts | 4° |
| 2026-05-06 21:54 | 49.12271 | 9.11851 | 18804 ft | 342 kts | 4° |
| 2026-05-06 21:54 | 49.14635 | 9.12193 | 18375 ft | 341 kts | 4° |
| 2026-05-06 21:55 | 49.16988 | 9.12529 | 17919 ft | 339 kts | 4° |
| 2026-05-06 21:55 | 49.19332 | 9.12860 | 17486 ft | 338 kts | 3° |
| 2026-05-06 21:55 | 49.21682 | 9.13193 | 17064 ft | 337 kts | 4° |
| 2026-05-06 21:55 | 49.23998 | 9.13521 | 16655 ft | 335 kts | 4° |
| 2026-05-06 21:56 | 49.26322 | 9.13852 | 16225 ft | 334 kts | 4° |
| 2026-05-06 21:56 | 49.28616 | 9.14243 | 15808 ft | 333 kts | 9° |
| 2026-05-06 21:56 | 49.30872 | 9.15020 | 15349 ft | 331 kts | 12° |
| 2026-05-06 21:56 | 49.33094 | 9.15810 | 14898 ft | 330 kts | 12° |
| 2026-05-06 21:57 | 49.35322 | 9.16603 | 14444 ft | 328 kts | 12° |
| 2026-05-06 21:57 | 49.37527 | 9.17392 | 14007 ft | 326 kts | 12° |
| 2026-05-06 21:57 | 49.39705 | 9.18169 | 13448 ft | 327 kts | 13° |
| 2026-05-06 21:57 | 49.41953 | 9.18970 | 12757 ft | 332 kts | 12° |
| 2026-05-06 21:58 | 49.44180 | 9.19766 | 12390 ft | 325 kts | 12° |
| 2026-05-06 21:58 | 49.46363 | 9.20542 | 12008 ft | 320 kts | 12° |
| 2026-05-06 21:58 | 49.48511 | 9.21302 | 11626 ft | 315 kts | 11° |
| 2026-05-06 21:58 | 49.50617 | 9.22048 | 11255 ft | 310 kts | 11° |
| 2026-05-06 21:59 | 49.52701 | 9.22785 | 10917 ft | 305 kts | 11° |
| 2026-05-06 21:59 | 49.54748 | 9.23429 | 10858 ft | 304 kts | 3° |
| 2026-05-06 21:59 | 49.56836 | 9.23203 | 10869 ft | 302 kts | 346° |
| 2026-05-06 21:59 | 49.58898 | 9.22558 | 10868 ft | 302 kts | 346° |
| 2026-05-06 22:00 | 49.60949 | 9.21901 | 10872 ft | 302 kts | 346° |
| 2026-05-06 22:00 | 49.63021 | 9.21233 | 10871 ft | 303 kts | 346° |
| 2026-05-06 22:00 | 49.65088 | 9.20565 | 10875 ft | 304 kts | 346° |
| 2026-05-06 22:00 | 49.67156 | 9.19895 | 10873 ft | 304 kts | 346° |
| 2026-05-06 22:01 | 49.69220 | 9.19226 | 10871 ft | 303 kts | 346° |
| 2026-05-06 22:01 | 49.71288 | 9.18555 | 10870 ft | 303 kts | 346° |
| 2026-05-06 22:01 | 49.73355 | 9.17888 | 10869 ft | 303 kts | 346° |
| 2026-05-06 22:01 | 49.75394 | 9.17229 | 10736 ft | 303 kts | 346° |
| 2026-05-06 22:02 | 49.77449 | 9.16562 | 10482 ft | 301 kts | 346° |
| 2026-05-06 22:02 | 49.79475 | 9.15904 | 10253 ft | 300 kts | 346° |
| 2026-05-06 22:02 | 49.81514 | 9.15243 | 10010 ft | 298 kts | 346° |
| 2026-05-06 22:02 | 49.83538 | 9.14588 | 9785 ft | 294 kts | 345° |
| 2026-05-06 22:03 | 49.85521 | 9.13948 | 9659 ft | 291 kts | 345° |
| 2026-05-06 22:03 | 49.87500 | 9.13309 | 9521 ft | 290 kts | 345° |
| 2026-05-06 22:03 | 49.89469 | 9.12670 | 9125 ft | 288 kts | 345° |
| 2026-05-06 22:03 | 49.91384 | 9.12047 | 8705 ft | 286 kts | 345° |
| 2026-05-06 22:04 | 49.93314 | 9.11417 | 8321 ft | 284 kts | 345° |
| 2026-05-06 22:04 | 49.95246 | 9.10783 | 7919 ft | 282 kts | 345° |
| 2026-05-06 22:04 | 49.97162 | 9.10150 | 7545 ft | 281 kts | 345° |
| 2026-05-06 22:04 | 49.99067 | 9.09525 | 7168 ft | 279 kts | 345° |
| 2026-05-06 22:05 | 50.00962 | 9.08906 | 6799 ft | 278 kts | 345° |
| 2026-05-06 22:05 | 50.02880 | 9.08615 | 6433 ft | 280 kts | 1° |
| 2026-05-06 22:05 | 50.04788 | 9.09248 | 6063 ft | 282 kts | 19° |
| 2026-05-06 22:05 | 50.06480 | 9.10773 | 5718 ft | 282 kts | 39° |
| 2026-05-06 22:06 | 50.07772 | 9.13004 | 5401 ft | 277 kts | 57° |
| 2026-05-06 22:06 | 50.08665 | 9.15642 | 5050 ft | 274 kts | 59° |
| 2026-05-06 22:06 | 50.09924 | 9.17775 | 4968 ft | 273 kts | 30° |
| 2026-05-06 22:06 | 50.11701 | 9.18750 | 4978 ft | 272 kts | 1° |
| 2026-05-06 22:07 | 50.13533 | 9.18327 | 4986 ft | 266 kts | 334° |
| 2026-05-06 22:07 | 50.14989 | 9.16622 | 4979 ft | 262 kts | 306° |
| 2026-05-06 22:07 | 50.15770 | 9.14099 | 4979 ft | 259 kts | 286° |
| 2026-05-06 22:07 | 50.16056 | 9.11330 | 4976 ft | 260 kts | 269° |
| 2026-05-06 22:08 | 50.15755 | 9.08559 | 4982 ft | 262 kts | 251° |
| 2026-05-06 22:08 | 50.15125 | 9.05891 | 4981 ft | 262 kts | 250° |
| 2026-05-06 22:08 | 50.14507 | 9.03228 | 4981 ft | 261 kts | 250° |
| 2026-05-06 22:08 | 50.13913 | 9.00675 | 4988 ft | 260 kts | 251° |
| 2026-05-06 22:09 | 50.13299 | 8.98043 | 4985 ft | 260 kts | 250° |
| 2026-05-06 22:09 | 50.12679 | 8.95393 | 4989 ft | 262 kts | 250° |
| 2026-05-06 22:09 | 50.12057 | 8.92738 | 4928 ft | 262 kts | 250° |
| 2026-05-06 22:09 | 50.11432 | 8.90074 | 4650 ft | 261 kts | 250° |
| 2026-05-06 22:10 | 50.10813 | 8.87442 | 4337 ft | 255 kts | 251° |
| 2026-05-06 22:10 | 50.10217 | 8.84908 | 3958 ft | 239 kts | 251° |
| 2026-05-06 22:10 | 50.09679 | 8.82632 | 3660 ft | 212 kts | 252° |
| 2026-05-06 22:10 | 50.09196 | 8.80580 | 3404 ft | 193 kts | 252° |
| 2026-05-06 22:11 | 50.08756 | 8.78717 | 3160 ft | 176 kts | 252° |
| 2026-05-06 22:11 | 50.08356 | 8.77023 | 2925 ft | 159 kts | 252° |
| 2026-05-06 22:11 | 50.08002 | 8.75521 | 2716 ft | 146 kts | 253° |
| 2026-05-06 22:11 | 50.07658 | 8.74063 | 2522 ft | 141 kts | 253° |
| 2026-05-06 22:12 | 50.07321 | 8.72639 | 2339 ft | 139 kts | 253° |
| 2026-05-06 22:12 | 50.06989 | 8.71234 | 2146 ft | 137 kts | 253° |
| 2026-05-06 22:12 | 50.06660 | 8.69844 | 1957 ft | 137 kts | 254° |
| 2026-05-06 22:12 | 50.06333 | 8.68461 | 1779 ft | 135 kts | 253° |
| 2026-05-06 22:13 | 50.06009 | 8.67097 | 1590 ft | 134 kts | 253° |
| 2026-05-06 22:13 | 50.05688 | 8.65741 | 1408 ft | 133 kts | 253° |
| 2026-05-06 22:13 | 50.05364 | 8.64378 | 1207 ft | 135 kts | 252° |
| 2026-05-06 22:13 | 50.05038 | 8.63008 | 1013 ft | 136 kts | 252° |
| 2026-05-06 22:14 | 50.04712 | 8.61625 | 821 ft | 136 kts | 252° |
| 2026-05-06 22:14 | 50.04389 | 8.60261 | 663 ft | 136 kts | 252° |
| 2026-05-06 22:14 | 50.04067 | 8.58917 | 424 ft | 135 kts | 251° |
| 2026-05-06 22:14 | 50.03748 | 8.57636 | 373 ft | 130 kts | 253° |
| 2026-05-06 22:15 | 50.03486 | 8.56464 | 355 ft | 103 kts | 248° |
| 2026-05-06 22:15 | 50.03280 | 8.55583 | 348 ft | 65 kts | 251° |
| 2026-05-06 22:15 | 50.03192 | 8.55235 | 351 ft | 24 kts | 247° |
| 2026-05-06 22:15 | 50.03179 | 8.54991 | 350 ft | 21 kts | 274° |
| 2026-05-06 22:16 | 50.03200 | 8.54760 | 339 ft | 23 kts | 280° |
| 2026-05-06 22:16 | 50.03251 | 8.54529 | 337 ft | 22 kts | 317° |
| 2026-05-06 22:16 | 50.03347 | 8.54465 | 338 ft | 13 kts | 338° |
| 2026-05-06 22:16 | 50.03444 | 8.54403 | 347 ft | 17 kts | 339° |
| 2026-05-06 22:17 | 50.03583 | 8.54329 | 341 ft | 25 kts | 341° |
| 2026-05-06 22:17 | 50.03634 | 8.54301 | 345 ft | 2 kts | 340° |
| 2026-05-06 22:17 | 50.03657 | 8.54319 | 352 ft | 6 kts | 54° |
| 2026-05-06 22:17 | 50.03682 | 8.54418 | 349 ft | 14 kts | 69° |
| 2026-05-06 22:18 | 50.03713 | 8.54549 | 347 ft | 12 kts | 70° |
| 2026-05-06 22:18 | 50.03724 | 8.54595 | 353 ft | 7 kts | 70° |
| 2026-05-06 22:18 | 50.03748 | 8.54698 | 349 ft | 13 kts | 70° |
| 2026-05-06 22:18 | 50.03788 | 8.54867 | 353 ft | 20 kts | 70° |
| 2026-05-06 22:19 | 50.03840 | 8.55082 | 351 ft | 24 kts | 69° |
| 2026-05-06 22:19 | 50.03891 | 8.55293 | 354 ft | 20 kts | 70° |
| 2026-05-06 22:19 | 50.03941 | 8.55502 | 356 ft | 22 kts | 70° |
| 2026-05-06 22:19 | 50.03970 | 8.55626 | 356 ft | 0 kts | 70° |
| 2026-05-06 22:20 | 50.03973 | 8.55639 | 354 ft | 2 kts | 70° |
| 2026-05-06 22:20 | 50.03981 | 8.55670 | 350 ft | 4 kts | 70° |
| 2026-05-06 22:20 | 50.03993 | 8.55725 | 354 ft | 6 kts | 70° |
| 2026-05-06 22:20 | 50.04011 | 8.55797 | 359 ft | 8 kts | 70° |
| 2026-05-06 22:21 | 50.04032 | 8.55885 | 354 ft | 10 kts | 69° |
| 2026-05-06 22:21 | 50.04065 | 8.56023 | 352 ft | 17 kts | 69° |
| 2026-05-06 22:21 | 50.04112 | 8.56221 | 357 ft | 23 kts | 69° |
| 2026-05-06 22:21 | 50.04172 | 8.56472 | 361 ft | 23 kts | 70° |
| 2026-05-06 22:22 | 50.04216 | 8.56654 | 359 ft | 17 kts | 70° |
| 2026-05-06 22:22 | 50.04262 | 8.56793 | 362 ft | 11 kts | 34° |
| 2026-05-06 22:22 | 50.04351 | 8.56830 | 360 ft | 16 kts | 10° |
| 2026-05-06 22:22 | 50.04477 | 8.56864 | 359 ft | 17 kts | 11° |
| 2026-05-06 22:23 | 50.04526 | 8.56882 | 359 ft | 0 kts | 14° |
| 2026-05-06 22:23 | 50.04547 | 8.56890 | 359 ft | 7 kts | 14° |
| 2026-05-06 22:23 | 50.04625 | 8.56920 | 356 ft | 16 kts | 16° |
| 2026-05-06 22:23 | 50.04733 | 8.56991 | 356 ft | 16 kts | 24° |
| 2026-05-06 22:24 | 50.04839 | 8.57066 | 360 ft | 13 kts | 24° |
| 2026-05-06 22:24 | 50.04862 | 8.57075 | 358 ft | 2 kts | 343° |
| 2026-05-06 22:24 | 50.04886 | 8.57029 | 362 ft | 5 kts | 299° |
| 2026-05-06 22:24 | 50.04893 | 8.57002 | 357 ft | 0 kts | 294° |
| 2026-05-06 22:25 | 50.04896 | 8.56993 | 365 ft | 0 kts | 294° |